Galisteo, NM (87540)

11:42 PM MDT on September 25, 2016 (GMT -0600)
Spirit Wind Ranch (Lamy NM) | | Change Station

Elev 6518 ft 35.48 °N, 105.90 °W | Updated 30 seconds ago

Clear
Clear
52.2 °F
Feels Like 52.2 °F
N
0.4
Wind Variable Wind from NE
Gusts 2.5 mph

Today
High -- | Low -- °F
--% Chance of Precip.
Yesterday
High -- | Low -- °F
Precip. -- in
Pressure 30.23 in
Visibility 10.0 miles
Clouds Clear
Dew Point 34 °F
Humidity 49%
Rainfall 0.00 in
Snow Depth Not available.
6:54 AM 6:55 PM
Waning Crescent, 21% visible
METAR KSAF 260453Z AUTO 16009KT 10SM CLR 13/01 A3044 RMK AO2 SLP237 T01280011
Pressure 30.23 in
Visibility 10.0 miles
Clouds Clear
Dew Point 34 °F
Humidity 49%
Rainfall 0.00 in
Snow Depth Not available.
6:54 AM 6:55 PM
Waning Crescent, 21% visible
METAR KSAF 260453Z AUTO 16009KT 10SM CLR 13/01 A3044 RMK AO2 SLP237 T01280011

10-Day Weather Forecast

Almanac

Astronomy

Sep. 25, 2016 Rise Set
Actual Time
Civil Twilight
Nautical Twilight
Astronomical Twilight
Moon
Length of Visible Light
Length of Day
Tomorrow will be .
, % of the Moon is Illuminated

Today's Extremes

State Highs State Lows

Community

WunderPhotos

Upload Photos

1,941,852 photos uploaded!

WunderBlog® & News

Nearby

Air Quality

  Air Quality AQ Index Pollutant
Not available.

Snow Depth

Station Depth Elevation

Earthquake Activity

City Distance Mag. Time & Date
Minimum magnitude displayed is 2.5.

Coastal Water Temperatures

Place Temperature

Stations

Nearby Weather Stations

Station Location Temp. Windchill Dew Point Humidity Wind Precip. Elev Updated Type
                   

Watches & Warnings

There are currently no watches in effect.